createdAt,value
2022-08-19T00:02:00.434Z,6.68
2022-08-19T00:04:33.360Z,7.38
2022-08-19T00:07:01.730Z,3.22
2022-08-19T00:09:29.997Z,5.15
2022-08-19T00:11:59.391Z,6.30
2022-08-19T00:14:28.749Z,5.20
2022-08-19T00:16:57.681Z,7.28
2022-08-19T00:19:27.029Z,3.63
2022-08-19T00:21:57.963Z,4.63
2022-08-19T00:24:27.029Z,4.40
2022-08-19T00:26:56.116Z,5.47
2022-08-19T00:29:29.290Z,3.88
2022-08-19T00:32:00.813Z,6.75
2022-08-19T00:34:30.629Z,4.75
2022-08-19T00:37:00.502Z,6.20
2022-08-19T00:39:28.469Z,5.28
2022-08-19T00:41:56.543Z,5.00
2022-08-19T00:44:28.856Z,6.70
2022-08-19T00:46:59.905Z,3.38
2022-08-19T00:49:36.358Z,5.00
2022-08-19T00:52:09.717Z,6.38
2022-08-19T00:54:51.978Z,6.70
2022-08-19T00:57:25.254Z,3.53
2022-08-19T01:00:01.967Z,4.50
2022-08-19T01:02:32.790Z,8.07
2022-08-19T01:05:03.510Z,5.20
2022-08-19T01:07:35.984Z,3.90
2022-08-19T01:10:07.986Z,3.50
2022-08-19T01:12:36.114Z,5.00
2022-08-19T01:15:05.199Z,5.55
2022-08-19T01:17:33.633Z,6.13
2022-08-19T01:20:03.026Z,6.93
2022-08-19T01:22:34.328Z,5.38
2022-08-19T01:25:12.865Z,10.13
2022-08-19T01:27:45.738Z,8.02
2022-08-19T01:30:15.517Z,4.35
2022-08-19T01:32:44.186Z,6.93
2022-08-19T01:35:13.517Z,5.75
2022-08-19T01:37:50.697Z,5.00
2022-08-19T01:40:21.273Z,3.38
2022-08-19T01:42:49.962Z,4.80
2022-08-19T01:45:21.745Z,4.97
2022-08-19T01:48:01.048Z,7.15
2022-08-19T01:50:32.188Z,4.75
2022-08-19T01:53:07.752Z,4.72
2022-08-19T01:55:40.841Z,10.90
2022-08-19T01:58:13.310Z,6.63
2022-08-19T02:00:41.444Z,4.07
2022-08-19T02:03:10.289Z,5.30
2022-08-19T02:05:38.338Z,3.70
2022-08-19T02:08:07.764Z,6.10
2022-08-19T02:10:35.762Z,6.22
2022-08-19T02:13:03.986Z,3.65
2022-08-19T02:15:34.143Z,4.90
2022-08-19T02:18:02.051Z,3.55
2022-08-19T02:20:29.928Z,11.23
2022-08-19T02:23:02.188Z,7.38
2022-08-19T02:25:33.630Z,15.02
2022-08-19T02:28:01.494Z,7.53
2022-08-19T02:30:29.850Z,4.93
2022-08-19T02:32:58.698Z,3.90
2022-08-19T02:35:31.167Z,8.90
2022-08-19T02:38:16.368Z,8.93
2022-08-19T02:40:54.897Z,4.38
2022-08-19T02:43:23.871Z,3.60
2022-08-19T02:45:52.888Z,4.15
2022-08-19T02:48:22.911Z,6.40
2022-08-19T02:50:56.377Z,4.32
2022-08-19T02:53:26.099Z,2.95
2022-08-19T02:55:55.812Z,4.20
2022-08-19T02:58:25.329Z,5.82
2022-08-19T03:00:56.188Z,4.80
2022-08-19T03:03:24.372Z,3.40
2022-08-19T03:05:56.492Z,4.13
2022-08-19T03:08:25.427Z,4.35
2022-08-19T03:10:55.634Z,9.43
2022-08-19T03:13:24.196Z,6.90
2022-08-19T03:15:52.328Z,6.13
2022-08-19T03:18:23.490Z,5.07
2022-08-19T03:20:53.819Z,6.55
2022-08-19T03:23:25.330Z,8.43
2022-08-19T03:25:58.161Z,8.25
2022-08-19T03:28:51.392Z,10.07
2022-08-19T03:31:44.282Z,7.10
2022-08-19T03:34:15.120Z,5.35
2022-08-19T03:36:49.341Z,5.97
2022-08-19T03:39:18.274Z,8.65
2022-08-19T03:41:49.931Z,10.10
2022-08-19T03:44:39.243Z,8.68
2022-08-19T03:47:07.470Z,3.80
2022-08-19T03:49:36.075Z,7.15
2022-08-19T03:52:08.177Z,6.60
2022-08-19T03:54:36.955Z,5.47
2022-08-19T03:57:12.082Z,5.28
2022-08-19T03:59:40.636Z,4.85
2022-08-19T04:02:11.542Z,7.30
2022-08-19T04:04:40.404Z,4.88
2022-08-19T04:07:09.197Z,6.68
2022-08-19T04:09:38.123Z,4.45
2022-08-19T04:12:07.953Z,7.47
2022-08-19T04:14:36.951Z,5.15
2022-08-19T04:17:06.590Z,8.38
2022-08-19T04:19:36.328Z,8.23
2022-08-19T04:22:05.039Z,7.90
2022-08-19T04:24:33.829Z,4.63
2022-08-19T04:27:02.839Z,4.18
2022-08-19T04:29:35.672Z,4.93
2022-08-19T04:32:09.445Z,5.28
2022-08-19T04:35:01.377Z,5.40
2022-08-19T04:37:27.422Z,7.88
2022-08-19T04:40:15.055Z,5.72
2022-08-19T04:42:42.915Z,6.05
2022-08-19T04:45:15.747Z,12.77
2022-08-19T04:47:49.148Z,5.63
2022-08-19T04:50:27.955Z,5.85
2022-08-19T04:52:56.927Z,7.07
2022-08-19T04:55:26.543Z,5.20
2022-08-19T04:57:57.052Z,9.55
2022-08-19T05:00:26.519Z,12.02
2022-08-19T05:02:54.535Z,7.82
2022-08-19T05:05:22.483Z,5.85
2022-08-19T05:07:50.755Z,6.47
2022-08-19T05:10:18.740Z,5.60
2022-08-19T05:12:49.887Z,5.68
2022-08-19T05:15:19.781Z,7.13
2022-08-19T05:18:02.941Z,10.15
2022-08-19T05:20:48.062Z,6.72
2022-08-19T05:23:21.911Z,7.75
2022-08-19T05:25:51.159Z,5.82
2022-08-19T05:28:19.386Z,6.07
2022-08-19T05:30:48.988Z,5.25
2022-08-19T05:33:18.258Z,8.68
2022-08-19T05:35:47.086Z,8.68
2022-08-19T05:38:14.955Z,4.88
2022-08-19T05:40:42.899Z,7.03
2022-08-19T05:43:10.912Z,3.58
2022-08-19T05:45:44.098Z,11.10
2022-08-19T05:48:13.100Z,7.30
2022-08-19T05:50:46.255Z,7.00
2022-08-19T05:53:17.210Z,6.82
2022-08-19T05:55:45.140Z,13.50
2022-08-19T05:58:13.042Z,11.48
2022-08-19T06:00:41.034Z,18.20
2022-08-19T06:03:12.566Z,13.93
2022-08-19T06:05:52.093Z,12.80
2022-08-19T06:08:34.160Z,8.82
2022-08-19T06:11:19.321Z,13.57
2022-08-19T06:13:51.383Z,9.68
2022-08-19T06:16:23.245Z,10.93
2022-08-19T06:18:53.449Z,17.58
2022-08-19T06:21:24.688Z,12.38
2022-08-19T06:23:54.909Z,19.27
2022-08-19T06:26:24.415Z,16.52
2022-08-19T06:28:52.668Z,13.10
2022-08-19T06:31:25.699Z,19.73
2022-08-19T06:33:55.116Z,13.75
2022-08-19T06:36:32.417Z,10.25
2022-08-19T06:39:01.401Z,18.55
2022-08-19T06:41:32.130Z,11.20
2022-08-19T06:44:02.852Z,9.15
2022-08-19T06:46:31.685Z,12.07
2022-08-19T06:49:05.239Z,21.67
2022-08-19T06:51:35.312Z,22.30
2022-08-19T06:54:19.171Z,12.52
2022-08-19T06:56:48.368Z,21.83
2022-08-19T06:59:18.741Z,16.90
2022-08-19T07:01:49.053Z,16.45
2022-08-19T07:04:19.541Z,27.27
2022-08-19T07:06:54.852Z,22.65
2022-08-19T07:09:23.885Z,19.83
2022-08-19T07:11:55.195Z,22.30
2022-08-19T07:14:26.299Z,28.10
2022-08-19T07:16:57.030Z,29.30
2022-08-19T07:19:28.305Z,31.08
2022-08-19T07:21:57.816Z,33.00
2022-08-19T07:24:27.827Z,14.20
2022-08-19T07:27:08.475Z,15.05
2022-08-19T07:29:43.006Z,21.88
2022-08-19T07:32:13.594Z,26.98
2022-08-19T07:34:41.496Z,36.33
2022-08-19T07:37:17.077Z,32.83
2022-08-19T07:39:44.958Z,36.42
2022-08-19T07:42:21.872Z,34.47
2022-08-19T07:44:50.996Z,40.83
2022-08-19T07:47:47.966Z,17.80
2022-08-19T07:50:10.590Z,28.25
2022-08-19T07:52:40.790Z,29.13
2022-08-19T07:55:42.684Z,22.33
2022-08-19T07:57:59.617Z,30.42
2022-08-19T08:00:27.928Z,33.40
2022-08-19T08:02:56.242Z,14.65
2022-08-19T08:05:41.782Z,28.02
2022-08-19T08:08:30.687Z,19.00
2022-08-19T08:10:58.790Z,17.17
2022-08-19T08:13:29.378Z,32.00
2022-08-19T08:15:57.307Z,23.65
2022-08-19T08:18:27.397Z,30.80
2022-08-19T08:20:56.665Z,39.28
2022-08-19T08:23:27.318Z,24.95
2022-08-19T08:25:57.733Z,26.90
2022-08-19T08:28:29.745Z,33.47
2022-08-19T08:30:58.936Z,28.63
2022-08-19T08:33:34.136Z,19.48
2022-08-19T08:36:04.116Z,38.90
2022-08-19T08:38:39.781Z,26.10
2022-08-19T08:41:20.282Z,19.83
2022-08-19T08:43:52.002Z,31.67
2022-08-19T08:46:30.485Z,28.55
2022-08-19T08:49:06.600Z,24.52
2022-08-19T08:54:12.677Z,24.20
2022-08-19T08:56:41.178Z,19.35
2022-08-19T08:59:18.489Z,23.90
2022-08-19T09:01:46.592Z,25.05
2022-08-19T09:04:15.425Z,29.58
2022-08-19T09:06:52.824Z,19.95
2022-08-19T09:09:32.014Z,21.92
2022-08-19T09:12:08.317Z,29.27
2022-08-19T09:14:50.718Z,25.38
2022-08-19T09:17:21.985Z,29.30
2022-08-19T09:19:58.305Z,24.05
2022-08-19T09:22:28.679Z,29.30
2022-08-19T09:25:01.297Z,20.63
2022-08-19T09:27:42.493Z,18.70
2022-08-19T09:30:15.812Z,19.70
2022-08-19T09:32:45.600Z,25.17
2022-08-19T09:35:15.880Z,28.52
2022-08-19T09:37:44.639Z,17.77
2022-08-19T09:40:15.604Z,17.45
2022-08-19T09:42:49.798Z,19.17
2022-08-19T09:45:22.074Z,20.55
2022-08-19T09:47:52.044Z,16.40
2022-08-19T09:50:23.776Z,17.05
2022-08-19T09:52:55.161Z,15.23
2022-08-19T09:55:31.589Z,17.27
2022-08-19T09:58:01.881Z,16.98
2022-08-19T10:00:31.305Z,15.13
2022-08-19T10:02:59.223Z,28.40
2022-08-19T10:05:44.766Z,13.68
2022-08-19T10:08:18.548Z,17.55
2022-08-19T10:10:51.226Z,16.67
2022-08-19T10:13:26.362Z,29.70
2022-08-19T10:15:55.753Z,18.02
2022-08-19T10:18:25.100Z,18.30
2022-08-19T10:20:56.061Z,11.98
2022-08-19T10:23:35.629Z,15.70
2022-08-19T10:26:06.939Z,30.35
2022-08-19T10:28:39.301Z,18.67
2022-08-19T10:31:08.390Z,13.70
2022-08-19T10:33:53.550Z,19.15
2022-08-19T10:36:24.445Z,23.25
2022-08-19T10:38:59.563Z,20.55
2022-08-19T10:41:38.870Z,24.77
2022-08-19T10:44:09.014Z,28.33
2022-08-19T10:46:39.457Z,26.38
2022-08-19T10:49:08.391Z,15.70
2022-08-19T10:51:53.926Z,34.70
2022-08-19T10:54:31.464Z,30.83
2022-08-19T10:57:04.321Z,28.98
2022-08-19T10:59:36.125Z,32.42
2022-08-19T11:02:20.611Z,19.27
2022-08-19T11:04:50.585Z,29.58
2022-08-19T11:07:22.439Z,34.42
2022-08-19T11:09:56.490Z,28.95
2022-08-19T11:12:28.610Z,23.85
2022-08-19T11:14:59.904Z,25.67
2022-08-19T11:17:27.814Z,17.42
2022-08-19T11:19:58.358Z,22.50
2022-08-19T11:22:34.426Z,19.05
2022-08-19T11:25:13.146Z,35.40
2022-08-19T11:27:44.206Z,20.30
2022-08-19T11:30:24.225Z,16.67
2022-08-19T11:32:54.582Z,32.83
2022-08-19T11:35:24.343Z,15.75
2022-08-19T11:37:52.211Z,18.77
2022-08-19T11:40:20.810Z,19.92
2022-08-19T11:42:57.009Z,17.98
2022-08-19T11:45:25.530Z,20.63
2022-08-19T11:47:56.889Z,17.55
2022-08-19T11:50:31.130Z,12.27
2022-08-19T11:52:59.208Z,12.40
2022-08-19T11:55:27.407Z,10.38
2022-08-19T11:57:59.389Z,12.48
2022-08-19T12:00:27.481Z,12.48
2022-08-19T12:02:55.681Z,13.52
2022-08-19T12:05:26.134Z,10.85
2022-08-19T12:07:55.427Z,13.38
2022-08-19T12:10:26.707Z,8.95
2022-08-19T12:12:58.768Z,7.35
2022-08-19T12:15:37.188Z,11.27
2022-08-19T12:18:09.873Z,11.20
2022-08-19T12:20:43.854Z,8.35
2022-08-19T12:23:12.173Z,8.50
2022-08-19T12:25:52.612Z,8.35
2022-08-19T12:28:23.555Z,17.67
2022-08-19T12:30:52.925Z,8.63
2022-08-19T12:33:25.551Z,6.60
2022-08-19T12:35:54.945Z,13.15
2022-08-19T12:38:25.185Z,6.55
2022-08-19T12:40:57.129Z,5.65
2022-08-19T12:43:30.278Z,7.10
2022-08-19T12:45:58.158Z,5.32
2022-08-19T12:48:33.898Z,5.15
2022-08-19T12:51:07.853Z,4.75
2022-08-19T12:53:39.348Z,8.63
2022-08-19T12:56:12.745Z,8.32
2022-08-19T12:58:50.238Z,8.02
2022-08-19T13:01:22.545Z,4.80
2022-08-19T13:03:53.004Z,6.40
2022-08-19T13:06:21.283Z,6.03
2022-08-19T13:08:49.184Z,2.92
2022-08-19T13:11:21.801Z,5.05
2022-08-19T13:13:52.233Z,5.38
2022-08-19T13:16:23.253Z,4.15
2022-08-19T13:18:52.299Z,10.32
2022-08-19T13:21:22.617Z,9.85
2022-08-19T13:23:51.634Z,7.05
2022-08-19T13:26:23.231Z,5.78
2022-08-19T13:29:12.598Z,11.35
2022-08-19T13:32:00.307Z,7.43
2022-08-19T13:34:36.966Z,7.03
2022-08-19T13:37:06.345Z,12.90
2022-08-19T13:39:36.349Z,3.67
2022-08-19T13:42:17.107Z,4.15
2022-08-19T13:44:47.161Z,14.25
2022-08-19T13:47:18.385Z,5.30
2022-08-19T13:49:47.714Z,10.35
2022-08-19T13:52:15.706Z,12.98
2022-08-19T13:54:47.444Z,8.30
2022-08-19T13:57:16.087Z,8.65
2022-08-19T13:59:44.004Z,5.20
2022-08-19T14:02:13.349Z,9.20
2022-08-19T14:04:44.276Z,3.25
2022-08-19T14:07:12.114Z,3.30
2022-08-19T14:09:39.969Z,5.00
2022-08-19T14:12:13.511Z,11.95
2022-08-19T14:14:46.036Z,3.95
2022-08-19T14:17:17.418Z,4.38
2022-08-19T14:19:48.176Z,3.47
2022-08-19T14:22:22.143Z,4.55
2022-08-19T14:24:51.103Z,7.38
2022-08-19T14:27:19.178Z,5.28
2022-08-19T14:29:47.423Z,4.80
2022-08-19T14:32:18.455Z,3.83
2022-08-19T14:34:47.479Z,4.68
2022-08-19T14:37:15.978Z,8.18
2022-08-19T14:39:45.641Z,3.50
2022-08-19T14:42:17.650Z,3.95
2022-08-19T14:44:46.004Z,5.07
2022-08-19T14:47:14.065Z,3.58
2022-08-19T14:49:48.420Z,6.65
2022-08-19T14:52:17.039Z,3.35
2022-08-19T14:54:45.244Z,3.17
2022-08-19T14:57:20.389Z,2.65
2022-08-19T14:59:48.233Z,3.30
2022-08-19T15:02:33.530Z,2.45
2022-08-19T15:05:04.690Z,2.63
2022-08-19T15:07:32.604Z,3.03
2022-08-19T15:10:00.670Z,3.08
2022-08-19T15:12:31.769Z,4.47
2022-08-19T15:15:03.002Z,2.17
2022-08-19T15:17:45.476Z,7.85
2022-08-19T15:20:18.889Z,2.50
2022-08-19T15:22:46.927Z,2.10
2022-08-19T15:25:17.004Z,2.50
2022-08-19T15:27:44.908Z,4.18
2022-08-19T15:30:22.580Z,5.07
2022-08-19T15:32:50.954Z,3.08
2022-08-19T15:35:21.176Z,5.25
2022-08-19T15:37:53.994Z,3.17
2022-08-19T15:40:22.807Z,2.70
2022-08-19T15:42:51.061Z,9.60
2022-08-19T15:45:20.522Z,2.30
2022-08-19T15:47:48.910Z,4.57
2022-08-19T15:50:19.822Z,3.45
2022-08-19T15:52:52.293Z,6.45
2022-08-19T15:55:32.594Z,2.53
2022-08-19T15:58:28.223Z,4.53
2022-08-19T16:01:15.463Z,3.28
2022-08-19T16:04:01.326Z,3.00
2022-08-19T16:06:33.113Z,4.78
2022-08-19T16:09:05.853Z,4.07
2022-08-19T16:11:40.143Z,3.38
2022-08-19T16:14:10.808Z,2.97
2022-08-19T16:16:39.521Z,3.25
2022-08-19T16:19:12.150Z,3.47
2022-08-19T16:21:41.751Z,3.20
2022-08-19T16:24:22.796Z,1.95
2022-08-19T16:26:52.922Z,4.13
2022-08-19T16:29:34.633Z,3.10
2022-08-19T16:32:10.499Z,9.95
2022-08-19T16:34:40.397Z,2.60
2022-08-19T16:37:11.176Z,2.17
2022-08-19T16:39:41.017Z,3.28
2022-08-19T16:42:12.568Z,5.28
2022-08-19T16:44:43.402Z,3.97
2022-08-19T16:47:12.344Z,4.88
2022-08-19T16:49:53.492Z,5.03
2022-08-19T16:52:31.354Z,2.75
2022-08-19T16:55:00.811Z,3.90
2022-08-19T16:57:28.841Z,3.03
2022-08-19T16:59:56.708Z,2.38
2022-08-19T17:02:29.597Z,2.53
2022-08-19T17:04:59.676Z,1.90
2022-08-19T17:07:33.321Z,3.35
2022-08-19T17:10:04.223Z,3.30
2022-08-19T17:12:34.497Z,4.18
2022-08-19T17:15:03.534Z,2.88
2022-08-19T17:17:32.313Z,2.08
2022-08-19T17:20:01.307Z,3.60
2022-08-19T17:22:29.685Z,2.30
2022-08-19T17:24:58.481Z,2.92
2022-08-19T17:27:32.666Z,2.83
2022-08-19T17:30:02.326Z,3.47
2022-08-19T17:32:30.753Z,9.07
2022-08-19T17:34:58.791Z,3.28
2022-08-19T17:37:26.973Z,4.32
2022-08-19T17:39:55.763Z,2.42
2022-08-19T17:42:23.778Z,3.58
2022-08-19T17:44:53.349Z,5.15
2022-08-19T17:47:28.883Z,3.58
2022-08-19T17:50:00.268Z,2.95
2022-08-19T17:52:28.341Z,2.30
2022-08-19T17:54:57.206Z,3.90
2022-08-19T17:57:31.469Z,3.40
2022-08-19T18:00:00.774Z,3.50
2022-08-19T18:02:32.958Z,9.25
2022-08-19T18:05:04.418Z,4.97
2022-08-19T18:07:35.421Z,3.35
2022-08-19T18:10:03.512Z,2.40
2022-08-19T18:12:31.738Z,3.17
2022-08-19T18:15:04.550Z,2.90
2022-08-19T18:17:37.207Z,3.30
2022-08-19T18:20:11.784Z,1.83
2022-08-19T18:22:42.408Z,2.15
2022-08-19T18:25:19.140Z,3.00
2022-08-19T18:27:47.776Z,2.10
2022-08-19T18:30:17.523Z,3.28
2022-08-19T18:32:49.206Z,2.90
2022-08-19T18:35:21.019Z,1.70
2022-08-19T18:37:49.426Z,2.47
2022-08-19T18:40:39.177Z,2.33
2022-08-19T18:43:25.219Z,1.80
2022-08-19T18:46:11.946Z,1.80
2022-08-19T18:48:59.804Z,1.80
2022-08-19T18:51:29.805Z,2.30
2022-08-19T18:53:59.580Z,2.80
2022-08-19T18:56:31.711Z,2.00
2022-08-19T18:59:04.405Z,1.70
2022-08-19T19:01:39.980Z,1.90
2022-08-19T19:04:11.547Z,1.98
2022-08-19T19:06:41.090Z,2.15
2022-08-19T19:09:10.314Z,1.80
2022-08-19T19:11:42.558Z,1.70
2022-08-19T19:14:23.201Z,1.92
2022-08-19T19:17:03.477Z,2.20
2022-08-19T19:19:32.312Z,3.47
2022-08-19T19:22:01.181Z,3.80
2022-08-19T19:24:34.324Z,3.78
2022-08-19T19:27:06.922Z,2.58
2022-08-19T19:29:36.457Z,4.72
2022-08-19T19:32:07.950Z,1.70
2022-08-19T19:34:38.620Z,2.15
2022-08-19T19:37:07.091Z,6.00
2022-08-19T19:39:46.004Z,2.10
2022-08-19T19:42:20.388Z,2.97
2022-08-19T19:44:56.068Z,4.47
2022-08-19T19:47:26.720Z,4.13
2022-08-19T19:50:16.078Z,2.20
2022-08-19T19:52:46.573Z,2.13
2022-08-19T19:55:18.418Z,4.20
2022-08-19T19:57:46.561Z,2.20
2022-08-19T20:00:18.523Z,2.90
2022-08-19T20:02:50.371Z,5.43
2022-08-19T20:05:21.067Z,2.65
2022-08-19T20:08:07.371Z,2.70
2022-08-19T20:10:38.745Z,9.93
2022-08-19T20:13:07.935Z,2.17
2022-08-19T20:15:40.445Z,3.65
2022-08-19T20:18:14.259Z,2.75
2022-08-19T20:20:49.473Z,4.00
2022-08-19T20:23:17.535Z,7.38
2022-08-19T20:25:45.390Z,2.30
2022-08-19T20:28:13.620Z,3.05
2022-08-19T20:30:46.424Z,2.58
2022-08-19T20:33:18.628Z,4.60
2022-08-19T20:35:49.350Z,4.28
2022-08-19T20:38:18.007Z,3.55
2022-08-19T20:40:46.401Z,14.00
2022-08-19T20:43:14.987Z,5.82
2022-08-19T20:45:43.061Z,3.40
2022-08-19T20:48:12.373Z,4.10
2022-08-19T20:50:41.934Z,4.78
2022-08-19T20:53:11.730Z,3.25
2022-08-19T20:55:42.347Z,3.90
2022-08-19T20:58:15.701Z,4.60
2022-08-19T21:00:50.632Z,3.58
2022-08-19T21:03:20.305Z,3.00
2022-08-19T21:05:49.539Z,4.05
2022-08-19T21:08:19.094Z,6.30
2022-08-19T21:10:47.228Z,2.85
2022-08-19T21:13:19.873Z,2.65
2022-08-19T21:15:48.491Z,2.42
2022-08-19T21:18:20.175Z,5.05
2022-08-19T21:20:51.697Z,3.47
2022-08-19T21:23:23.377Z,3.63
2022-08-19T21:25:54.762Z,2.90
2022-08-19T21:28:35.513Z,2.40
2022-08-19T21:31:06.315Z,3.47
2022-08-19T21:33:34.323Z,3.78
2022-08-19T21:36:04.601Z,5.72
2022-08-19T21:38:35.558Z,6.07
2022-08-19T21:41:09.534Z,10.45
2022-08-19T21:46:19.991Z,3.60
2022-08-19T21:48:48.541Z,4.15
2022-08-19T21:51:19.473Z,4.32
2022-08-19T21:53:49.007Z,3.40
2022-08-19T21:56:26.074Z,4.13
2022-08-19T21:58:55.472Z,4.93
2022-08-19T22:01:26.668Z,7.30
2022-08-19T22:03:54.597Z,4.55
2022-08-19T22:06:25.667Z,4.30
2022-08-19T22:08:56.684Z,9.40
2022-08-19T22:11:25.895Z,10.77
2022-08-19T22:13:56.017Z,3.75
2022-08-19T22:16:24.385Z,3.65
2022-08-19T22:18:52.602Z,4.22
2022-08-19T22:21:39.967Z,2.95
2022-08-19T22:24:12.605Z,3.53
2022-08-19T22:26:40.526Z,3.35
2022-08-19T22:29:08.936Z,4.18
2022-08-19T22:31:37.571Z,5.47
2022-08-19T22:34:06.734Z,3.00
2022-08-19T22:36:35.473Z,4.72
2022-08-19T22:39:06.207Z,2.83
2022-08-19T22:41:35.420Z,8.23
2022-08-19T22:44:03.779Z,5.63
2022-08-19T22:46:34.217Z,8.80
2022-08-19T22:49:02.073Z,5.03
2022-08-19T22:51:47.861Z,4.55
2022-08-19T22:54:16.097Z,7.88
2022-08-19T22:56:45.367Z,3.30
2022-08-19T22:59:13.400Z,9.30
2022-08-19T23:01:41.705Z,3.97
2022-08-19T23:04:09.579Z,9.68
2022-08-19T23:06:41.469Z,3.28
2022-08-19T23:09:16.680Z,4.65
2022-08-19T23:11:49.106Z,2.75
2022-08-19T23:14:17.545Z,4.13
2022-08-19T23:16:51.294Z,3.63
2022-08-19T23:19:20.843Z,4.15
2022-08-19T23:21:49.087Z,3.58
2022-08-19T23:24:18.984Z,12.23
2022-08-19T23:27:00.910Z,5.22
2022-08-19T23:29:48.590Z,3.60
2022-08-19T23:32:17.198Z,6.57
2022-08-19T23:34:45.776Z,5.28
2022-08-19T23:37:14.310Z,5.80
2022-08-19T23:39:42.619Z,7.88
2022-08-19T23:42:12.298Z,6.53
2022-08-19T23:44:52.065Z,2.70
2022-08-19T23:47:23.366Z,5.15
2022-08-19T23:49:53.998Z,9.60
2022-08-19T23:52:21.923Z,6.00
2022-08-19T23:54:51.628Z,5.45
2022-08-19T23:57:20.229Z,3.75
2022-08-19T23:59:49.692Z,6.45
